Time;durP1;ratioP1;P1;durP2;ratioP2;P2;SDS_P1;SDS_P2;PMS_P1;PMS_P2;Temp;Humidity;BMP_temperature;BMP_pressure;BME280_temperature;BME280_humidity;BME280_pressure;Samples;Min_cycle;Max_cycle;Signal;HPM_P1;HPM_P2
2023/04/03 00:01:50;;;;;;;24.73;17.47;;;;;;;0.80;87.51;102463.47;5094908;28;20699;-68
2023/04/03 00:04:17;;;;;;;27.60;15.90;;;;;;;0.82;87.52;102468.75;5094006;28;20283;-68
2023/04/03 00:06:43;;;;;;;24.47;17.30;;;;;;;0.77;87.61;102471.41;5094011;28;20185;-68
2023/04/03 00:09:10;;;;;;;32.20;18.97;;;;;;;0.73;87.79;102479.31;5093918;28;20197;-68
2023/04/03 00:11:36;;;;;;;31.03;18.40;;;;;;;0.67;86.98;102474.06;5093850;28;20190;-68
2023/04/03 00:14:03;;;;;;;31.63;18.37;;;;;;;0.62;87.12;102471.41;5093766;28;20202;-68
2023/04/03 00:16:29;;;;;;;26.13;18.00;;;;;;;0.60;87.74;102475.84;5093800;28;20540;-68
2023/04/03 00:18:56;;;;;;;23.73;16.37;;;;;;;0.56;88.31;102482.00;5093749;28;20652;-68
2023/04/03 00:21:22;;;;;;;26.87;18.10;;;;;;;0.53;87.63;102472.34;5094516;28;20597;-68
2023/04/03 00:23:48;;;;;;;30.53;18.00;;;;;;;0.49;87.12;102472.34;5094075;28;20297;-68
2023/04/03 00:26:15;;;;;;;35.33;15.90;;;;;;;0.45;88.62;102470.59;5093721;28;20544;-68
2023/04/03 00:28:41;;;;;;;25.33;16.67;;;;;;;0.45;87.99;102475.84;5093659;28;20166;-68
2023/04/03 00:31:08;;;;;;;22.93;16.33;;;;;;;0.40;88.61;102478.50;5075409;28;20284;-68
2023/04/03 00:33:34;;;;;;;32.90;17.87;;;;;;;0.44;87.49;102468.84;5092891;28;20197;-68
2023/04/03 00:36:09;;;;;;;25.63;16.53;;;;;;;0.42;87.63;102471.47;5093497;28;20265;-68
2023/04/03 00:38:36;;;;;;;24.73;16.03;;;;;;;0.38;89.11;102475.88;5075453;28;20184;-69
2023/04/03 00:41:02;;;;;;;26.00;16.67;;;;;;;0.34;88.60;102475.88;5093744;28;20257;-69
2023/04/03 00:43:29;;;;;;;38.23;16.83;;;;;;;0.31;88.06;102475.88;5093248;28;20305;-68
2023/04/03 00:45:58;;;;;;;20.63;14.37;;;;;;;0.35;88.93;102472.34;5075404;28;20716;-68
2023/04/03 00:48:41;;;;;;;19.30;13.27;;;;;;;0.39;88.64;102476.75;5076091;28;20190;-68
2023/04/03 00:51:13;;;;;;;16.93;13.47;;;;;;;0.40;88.82;102475.84;5094348;28;20232;-68
2023/04/03 00:53:50;;;;;;;20.30;13.13;;;;;;;0.47;89.83;102474.09;5075379;28;20301;-68
2023/04/03 00:56:21;;;;;;;11.97;10.73;;;;;;;0.53;89.67;102477.63;5093617;28;20166;-68
2023/04/03 00:59:01;;;;;;;11.93;10.50;;;;;;;0.57;88.82;102478.47;5094446;28;20524;-68
2023/04/03 01:01:29;;;;;;;19.10;11.10;;;;;;;0.66;88.66;102473.19;5075200;28;20278;-68
2023/04/03 01:03:56;;;;;;;10.57;9.77;;;;;;;0.70;88.38;102477.56;5075162;28;20220;-69
2023/04/03 01:06:28;;;;;;;9.40;8.70;;;;;;;0.74;88.13;102481.06;5075154;28;20195;-69
2023/04/03 01:09:01;;;;;;;10.60;9.77;;;;;;;0.79;87.65;102488.09;5075632;28;20221;-69
2023/04/03 01:11:27;;;;;;;9.03;8.20;;;;;;;0.97;86.90;102486.28;5093198;28;20224;-69
2023/04/03 01:13:54;;;;;;;9.83;8.90;;;;;;;1.01;86.79;102477.47;5074932;28;20202;-69
2023/04/03 01:16:20;;;;;;;8.53;7.90;;;;;;;1.11;86.13;102489.75;5093439;28;20267;-69
2023/04/03 01:18:47;;;;;;;7.30;6.90;;;;;;;1.26;84.63;102480.88;5093101;28;20582;-69
2023/04/03 01:21:32;;;;;;;7.23;6.73;;;;;;;1.31;83.83;102486.13;5075014;28;20225;-69
2023/04/03 01:24:33;;;;;;;4.80;4.50;;;;;;;1.39;83.33;102493.16;5093218;28;20224;-68
2023/04/03 01:27:03;;;;;;;5.87;5.47;;;;;;;1.44;82.45;102493.13;5074977;28;20218;-68
2023/04/03 01:29:30;;;;;;;7.30;6.03;;;;;;;1.46;82.17;102493.97;5093580;28;20580;-68
2023/04/03 01:31:59;;;;;;;6.23;5.87;;;;;;;1.43;81.54;102486.06;5074993;28;20204;-68
2023/04/03 01:34:28;;;;;;;5.37;4.93;;;;;;;1.48;81.23;102494.84;5074836;28;20242;-69
2023/04/03 01:36:55;;;;;;;5.33;5.07;;;;;;;1.55;80.64;102488.63;5075032;28;20190;-69
2023/04/03 01:39:22;;;;;;;4.73;4.53;;;;;;;1.58;80.36;102498.31;5074823;28;20194;-69
2023/04/03 01:41:49;;;;;;;4.57;4.17;;;;;;;1.61;79.90;102485.97;5075000;28;20190;-69
2023/04/03 01:44:22;;;;;;;4.87;4.40;;;;;;;1.54;79.89;102494.81;5074665;28;20213;-69
2023/04/03 01:46:48;;;;;;;4.80;4.33;;;;;;;1.60;79.48;102496.53;5096687;28;20187;-68
2023/04/03 01:49:15;;;;;;;5.90;3.43;;;;;;;1.65;78.47;102498.28;5078402;28;20187;-68
2023/04/03 01:51:42;;;;;;;4.13;4.00;;;;;;;1.70;77.98;102496.47;5096827;28;20262;-69
2023/04/03 01:54:08;;;;;;;4.07;3.87;;;;;;;1.78;77.62;102495.56;5096429;28;20221;-69
2023/04/03 01:56:35;;;;;;;7.43;3.60;;;;;;;1.75;77.20;102501.75;5096725;28;20265;-69
2023/04/03 01:59:01;;;;;;;3.53;3.43;;;;;;;1.75;77.29;102493.81;5078271;28;20235;-69
2023/04/03 02:01:27;;;;;;;3.33;3.03;;;;;;;1.77;77.07;102514.91;5078154;28;20194;-69
2023/04/03 02:03:54;;;;;;;4.07;3.87;;;;;;;1.76;77.14;102500.84;5094875;28;20263;-69
2023/04/03 02:06:21;;;;;;;4.27;3.87;;;;;;;1.81;76.45;102508.75;5096502;28;20182;-69
2023/04/03 02:08:47;;;;;;;3.10;2.83;;;;;;;1.79;76.48;102500.81;5077988;28;20190;-69
2023/04/03 02:11:14;;;;;;;3.97;3.77;;;;;;;1.79;76.50;102507.88;5096655;28;20250;-69
2023/04/03 02:13:40;;;;;;;4.57;4.27;;;;;;;1.75;76.27;102504.38;5096386;28;20206;-68
2023/04/03 02:16:09;;;;;;;4.17;3.87;;;;;;;1.74;76.46;102509.66;5077923;28;20194;-68
2023/04/03 02:18:36;;;;;;;4.80;4.33;;;;;;;1.64;76.27;102512.34;5096832;28;20255;-68
2023/04/03 02:21:02;;;;;;;4.90;3.03;;;;;;;1.65;76.38;102523.78;5077863;28;20281;-68
2023/04/03 02:23:29;;;;;;;3.43;3.33;;;;;;;1.62;76.42;102529.09;5094515;28;20214;-68
2023/04/03 02:26:07;;;;;;;7.57;3.60;;;;;;;1.59;76.64;102515.91;5095728;28;20192;-68
2023/04/03 02:28:34;;;;;;;3.90;3.60;;;;;;;1.67;75.92;102512.31;5077762;28;20606;-68
2023/04/03 02:31:01;;;;;;;3.83;3.73;;;;;;;1.66;76.13;102515.88;5095815;28;20715;-68
2023/04/03 02:33:29;;;;;;;3.13;3.03;;;;;;;1.62;76.43;102515.91;5077500;28;20237;-68
2023/04/03 02:35:57;;;;;;;3.43;3.33;;;;;;;1.67;75.94;102511.47;5077526;28;20733;-68
2023/04/03 02:38:24;;;;;;;2.83;2.73;;;;;;;1.61;75.71;102517.66;5077489;28;20193;-68
2023/04/03 02:40:52;;;;;;;2.83;2.70;;;;;;;1.58;75.81;102522.06;5077563;28;20587;-68
2023/04/03 02:43:18;;;;;;;7.60;3.90;;;;;;;1.57;76.10;102526.47;5094374;28;20232;-68
2023/04/03 02:45:45;;;;;;;3.47;3.27;;;;;;;1.56;76.44;102526.50;5077234;28;20269;-68
2023/04/03 02:48:11;;;;;;;4.90;3.73;;;;;;;1.57;75.85;102523.84;5094261;28;20615;-68
2023/04/03 02:50:38;;;;;;;4.47;4.13;;;;;;;1.51;75.88;102533.53;5095666;28;20265;-69
2023/04/03 02:53:04;;;;;;;3.00;3.00;;;;;;;1.50;75.92;102530.03;5094113;28;20190;-67
2023/04/03 02:55:31;;;;;;;5.60;3.80;;;;;;;1.52;76.02;102527.41;5077220;28;20284;-68
2023/04/03 02:57:57;;;;;;;3.50;2.87;;;;;;;1.48;76.27;102523.88;5094667;28;20193;-68
2023/04/03 03:00:24;;;;;;;3.60;3.33;;;;;;;1.44;76.33;102532.72;5077084;28;20698;-68
2023/04/03 03:02:50;;;;;;;4.00;3.70;;;;;;;1.39;76.04;102526.56;5095111;28;20265;-68
2023/04/03 03:05:17;;;;;;;3.20;3.20;;;;;;;1.45;76.43;102535.34;5076873;28;20305;-68
2023/04/03 03:07:44;;;;;;;3.87;3.13;;;;;;;1.38;76.16;102528.31;5095637;28;20178;-68
2023/04/03 03:10:10;;;;;;;4.77;3.77;;;;;;;1.47;75.98;102532.69;5095281;28;20218;-68
2023/04/03 03:12:37;;;;;;;3.50;3.40;;;;;;;1.43;76.43;102538.88;5094951;28;20232;-68
2023/04/03 03:15:03;;;;;;;4.40;4.00;;;;;;;1.47;75.84;102532.69;5094864;28;20273;-68
2023/04/03 03:17:30;;;;;;;4.77;3.60;;;;;;;1.43;76.26;102537.09;5077046;28;20279;-68
2023/04/03 03:19:56;;;;;;;3.47;3.27;;;;;;;1.33;76.53;102535.38;5076662;28;20204;-68
2023/04/03 03:22:23;;;;;;;8.87;3.10;;;;;;;1.35;76.94;102530.13;5095211;28;20229;-68
2023/04/03 03:24:49;;;;;;;2.97;2.87;;;;;;;1.29;76.70;102536.28;5077190;28;20211;-67
2023/04/03 03:27:16;;;;;;;3.23;3.13;;;;;;;1.27;77.19;102540.72;5094721;28;20189;-67
2023/04/03 03:29:42;;;;;;;4.17;3.87;;;;;;;1.20;77.24;102536.34;5076589;28;20222;-69
2023/04/03 03:32:09;;;;;;;3.57;3.43;;;;;;;1.21;76.55;102546.00;5093537;28;20201;-69
2023/04/03 03:34:36;;;;;;;5.50;3.73;;;;;;;1.17;77.14;102541.59;5076670;28;20747;-68
2023/04/03 03:37:02;;;;;;;3.70;3.60;;;;;;;1.09;77.87;102541.63;5076364;28;20314;-68
2023/04/03 03:39:29;;;;;;;3.57;3.43;;;;;;;1.11;77.45;102541.63;5094507;28;20280;-68
2023/04/03 03:41:56;;;;;;;3.50;3.40;;;;;;;1.15;77.51;102546.00;5094417;28;20194;-68
2023/04/03 03:44:22;;;;;;;3.57;3.47;;;;;;;1.14;77.28;102546.91;5094300;28;20197;-68
2023/04/03 03:46:48;;;;;;;6.93;3.80;;;;;;;1.13;76.29;102543.38;5077184;28;20194;-68
2023/04/03 03:49:15;;;;;;;4.07;3.07;;;;;;;1.12;76.75;102546.03;5076909;28;20585;-68
2023/04/03 03:51:42;;;;;;;3.97;3.77;;;;;;;1.08;77.07;102542.53;5094228;28;20781;-68
2023/04/03 03:54:09;;;;;;;9.17;3.63;;;;;;;1.02;76.96;102540.75;5075947;28;20234;-69
2023/04/03 03:56:36;;;;;;;4.50;3.43;;;;;;;1.01;76.80;102540.78;5076016;28;20244;-69
2023/04/03 03:59:02;;;;;;;3.50;3.07;;;;;;;1.04;77.00;102551.31;5094380;28;20611;-69
2023/04/03 04:01:30;;;;;;;6.53;3.97;;;;;;;1.09;77.25;102543.41;5076461;28;20243;-69
2023/04/03 04:03:56;;;;;;;4.87;3.63;;;;;;;1.03;76.40;102545.19;5075895;28;20275;-68
2023/04/03 04:06:27;;;;;;;7.60;3.90;;;;;;;0.93;77.53;102546.06;5075879;28;20575;-68
2023/04/03 04:08:57;;;;;;;8.20;3.13;;;;;;;0.85;78.00;102545.22;5093843;28;20182;-68
2023/04/03 04:11:24;;;;;;;6.20;4.23;;;;;;;0.80;77.51;102553.13;5094139;28;20589;-68
2023/04/03 04:13:52;;;;;;;3.97;3.87;;;;;;;0.74;77.95;102555.78;5075850;28;20213;-68
2023/04/03 04:16:23;;;;;;;4.00;3.80;;;;;;;0.75;78.09;102552.25;5075601;28;20189;-68
2023/04/03 04:18:50;;;;;;;6.43;3.63;;;;;;;0.69;77.71;102556.66;5075894;28;20726;-68
2023/04/03 04:21:18;;;;;;;3.90;3.70;;;;;;;0.71;78.01;102547.00;5076142;28;20193;-68
2023/04/03 04:23:45;;;;;;;3.90;3.60;;;;;;;0.68;78.76;102558.44;5075411;28;20220;-68
2023/04/03 04:26:12;;;;;;;4.20;4.00;;;;;;;0.66;77.87;102567.22;5093706;28;20208;-68
2023/04/03 04:28:39;;;;;;;4.07;3.30;;;;;;;0.66;77.88;102565.47;5092482;28;20186;-68
2023/04/03 04:31:06;;;;;;;3.90;3.60;;;;;;;0.72;78.19;102564.56;5075761;28;20197;-68
2023/04/03 04:33:32;;;;;;;3.37;3.27;;;;;;;0.61;78.90;102565.47;5094032;28;20288;-68
2023/04/03 04:36:01;;;;;;;3.77;3.50;;;;;;;0.67;78.18;102561.06;5075351;28;20280;-68
2023/04/03 04:38:28;;;;;;;9.30;4.70;;;;;;;0.62;78.26;102563.69;5093976;28;20598;-68
2023/04/03 04:40:55;;;;;;;5.43;3.60;;;;;;;0.66;78.58;102570.72;5075298;28;20655;-68
2023/04/03 04:43:22;;;;;;;4.40;4.27;;;;;;;0.61;79.01;102568.09;5092279;28;20237;-68
2023/04/03 04:46:06;;;;;;;3.20;3.00;;;;;;;0.61;78.70;102572.50;5093798;28;20210;-68
2023/04/03 04:48:37;;;;;;;6.37;3.73;;;;;;;0.54;77.78;102573.38;5075272;28;20185;-68
2023/04/03 04:51:05;;;;;;;4.47;4.07;;;;;;;0.55;78.80;102578.66;5075435;28;20199;-68
2023/04/03 04:53:32;;;;;;;8.33;3.53;;;;;;;0.49;78.58;102575.13;5092015;28;20217;-67
2023/04/03 04:55:59;;;;;;;7.23;4.40;;;;;;;0.40;78.91;102579.50;5075454;28;20579;-69
2023/04/03 04:58:26;;;;;;;8.83;3.93;;;;;;;0.37;79.53;102583.91;5075406;28;20705;-69
2023/04/03 05:01:04;;;;;;;9.30;4.87;;;;;;;0.41;78.49;102583.06;5075097;28;20545;-69
2023/04/03 05:03:33;;;;;;;4.50;4.30;;;;;;;0.36;78.27;102588.31;5075096;28;20270;-68
2023/04/03 05:06:00;;;;;;;6.40;3.80;;;;;;;0.36;78.44;102584.78;5075093;28;20243;-68
2023/04/03 05:08:29;;;;;;;4.80;4.17;;;;;;;0.38;79.06;102597.09;5074934;28;20202;-68
2023/04/03 05:10:55;;;;;;;4.10;3.80;;;;;;;0.28;79.91;102592.69;5093166;28;20746;-69
2023/04/03 05:13:24;;;;;;;5.23;3.63;;;;;;;0.34;79.03;102599.72;5091742;28;20205;-68
2023/04/03 05:15:50;;;;;;;7.03;4.33;;;;;;;0.26;79.36;102598.81;5074906;28;20194;-68
2023/04/03 05:18:18;;;;;;;4.40;4.10;;;;;;;0.26;79.31;102606.72;5075073;28;20198;-69
2023/04/03 05:20:44;;;;;;;4.13;3.73;;;;;;;0.25;78.97;102599.72;5077267;28;20279;-69
2023/04/03 05:23:11;;;;;;;4.27;4.07;;;;;;;0.21;79.22;102606.72;5097543;28;20197;-68
2023/04/03 05:25:38;;;;;;;4.73;4.50;;;;;;;0.27;79.13;102617.28;5078904;28;20269;-68
2023/04/03 05:28:06;;;;;;;6.13;5.00;;;;;;;0.20;79.86;102612.88;5078942;28;20239;-68
2023/04/03 05:30:33;;;;;;;5.40;4.20;;;;;;;0.23;79.59;102604.97;5078770;28;20288;-69
2023/04/03 05:33:02;;;;;;;12.13;4.73;;;;;;;0.23;79.10;102604.09;5078661;28;20186;-67
2023/04/03 05:35:41;;;;;;;6.93;4.67;;;;;;;0.34;80.29;102616.41;5079185;28;20200;-68
2023/04/03 05:38:11;;;;;;;4.30;3.90;;;;;;;0.40;79.83;102615.53;5078930;28;20277;-68
2023/04/03 05:40:37;;;;;;;4.37;4.13;;;;;;;0.36;79.03;102621.66;5078529;28;20280;-68
2023/04/03 05:43:05;;;;;;;4.30;3.93;;;;;;;0.40;79.22;102626.94;5078416;28;20682;-68
2023/04/03 05:45:34;;;;;;;17.97;4.77;;;;;;;0.46;79.52;102627.84;5095595;28;20714;-68
2023/04/03 05:48:01;;;;;;;4.40;4.07;;;;;;;0.52;78.74;102634.00;5078441;28;20701;-69
2023/04/03 05:50:30;;;;;;;4.57;4.20;;;;;;;0.54;78.82;102640.16;5078394;28;20196;-69
2023/04/03 05:52:58;;;;;;;4.17;3.87;;;;;;;0.52;79.54;102639.25;5078320;28;20194;-68
2023/04/03 05:55:27;;;;;;;4.53;3.97;;;;;;;0.56;79.07;102641.03;5097128;28;20173;-68
2023/04/03 05:57:53;;;;;;;4.07;3.87;;;;;;;0.73;77.96;102640.16;5061672;28;20189;-68
2023/04/03 06:00:21;;;;;;;4.77;4.40;;;;;;;0.75;78.11;102643.69;5096364;28;20180;-68
2023/04/03 06:02:55;;;;;;;4.50;4.27;;;;;;;0.71;78.74;102647.19;5078046;28;20235;-68
2023/04/03 06:05:24;;;;;;;4.20;4.10;;;;;;;0.74;77.22;102640.19;5095228;28;20213;-68
2023/04/03 06:07:50;;;;;;;4.80;4.40;;;;;;;0.81;77.80;102648.94;5096214;28;20181;-68
2023/04/03 06:10:17;;;;;;;4.40;4.10;;;;;;;0.89;76.61;102651.56;5078014;28;20271;-69
2023/04/03 06:12:44;;;;;;;4.30;4.00;;;;;;;0.98;76.09;102644.56;5078007;28;20182;-68
2023/04/03 06:15:11;;;;;;;4.50;4.10;;;;;;;1.00;76.65;102657.72;5077879;28;20216;-68
2023/04/03 06:17:39;;;;;;;4.37;4.17;;;;;;;1.11;75.82;102653.31;5077953;28;20190;-68
2023/04/03 06:20:07;;;;;;;5.20;4.80;;;;;;;1.10;75.95;102656.81;5095946;28;20197;-68
2023/04/03 06:22:34;;;;;;;4.77;4.33;;;;;;;1.18;75.09;102657.72;5096263;28;20616;-68
2023/04/03 06:25:01;;;;;;;3.77;3.63;;;;;;;1.27;75.28;102656.84;5077640;28;20308;-68
2023/04/03 06:27:27;;;;;;;5.63;4.40;;;;;;;1.38;75.11;102660.31;5095975;28;20225;-69
2023/04/03 06:29:54;;;;;;;4.13;3.83;;;;;;;1.42;73.96;102658.56;5096070;28;20235;-68
2023/04/03 06:32:20;;;;;;;8.47;4.07;;;;;;;1.38;73.85;102656.78;5094710;28;20532;-69
2023/04/03 06:34:47;;;;;;;3.93;3.77;;;;;;;1.38;73.05;102652.38;5095713;28;20584;-69
2023/04/03 06:37:19;;;;;;;4.03;3.63;;;;;;;1.45;73.33;102647.97;5095817;28;20193;-69
2023/04/03 06:39:46;;;;;;;3.83;3.63;;;;;;;1.57;72.76;102647.94;5095560;28;20174;-69
2023/04/03 06:42:12;;;;;;;4.13;3.80;;;;;;;1.71;72.77;102653.16;5096085;28;20204;-69
2023/04/03 06:44:47;;;;;;;4.20;4.00;;;;;;;1.74;72.43;102655.78;5077393;28;20213;-69
2023/04/03 06:47:15;;;;;;;4.53;4.10;;;;;;;1.84;71.55;102648.72;5095803;28;20221;-69
2023/04/03 06:49:42;;;;;;;5.60;4.23;;;;;;;1.81;71.45;102659.28;5095822;28;20190;-69
2023/04/03 06:52:09;;;;;;;3.73;3.53;;;;;;;1.84;71.69;102661.91;5095603;28;20251;-70
2023/04/03 06:54:36;;;;;;;4.50;4.17;;;;;;;1.82;71.13;102661.03;5095290;28;20202;-69
2023/04/03 06:57:02;;;;;;;4.37;3.97;;;;;;;1.87;70.60;102672.50;5095314;28;20181;-69
2023/04/03 06:59:29;;;;;;;5.20;4.20;;;;;;;1.85;70.37;102668.97;5095263;28;20533;-69
2023/04/03 07:01:55;;;;;;;3.97;3.83;;;;;;;2.00;70.65;102671.53;5077175;28;20182;-69
2023/04/03 07:04:22;;;;;;;3.93;3.63;;;;;;;2.10;69.87;102670.59;5094971;28;20722;-69
2023/04/03 07:06:48;;;;;;;6.27;4.40;;;;;;;2.00;69.45;102675.94;5095122;28;20190;-69
2023/04/03 07:09:15;;;;;;;5.17;4.10;;;;;;;2.07;69.82;102672.41;5095642;28;20280;-69
2023/04/03 07:11:41;;;;;;;3.80;3.60;;;;;;;2.18;69.20;102685.53;5095569;28;20178;-69
2023/04/03 07:14:08;;;;;;;3.70;3.50;;;;;;;2.26;69.38;102681.09;5094950;28;20216;-70
2023/04/03 07:16:35;;;;;;;4.73;4.23;;;;;;;2.31;69.05;102677.53;5095240;28;20178;-70
2023/04/03 07:19:02;;;;;;;3.47;3.27;;;;;;;2.28;68.38;102693.44;5095466;28;20178;-70
2023/04/03 07:21:29;;;;;;;3.93;3.33;;;;;;;2.24;68.53;102689.03;5094810;28;20186;-69
2023/04/03 07:23:55;;;;;;;3.60;3.27;;;;;;;2.32;68.19;102699.56;5095150;28;20206;-70
2023/04/03 07:26:22;;;;;;;4.50;3.60;;;;;;;2.45;68.45;102703.03;5094531;28;20623;-70
2023/04/03 07:28:49;;;;;;;5.20;4.07;;;;;;;2.63;69.02;102684.38;5095103;28;20181;-70
2023/04/03 07:31:17;;;;;;;5.03;4.63;;;;;;;2.83;68.82;102688.66;5094748;28;20273;-69
2023/04/03 07:33:44;;;;;;;4.53;4.13;;;;;;;2.92;67.44;102696.50;5094816;28;20639;-69
2023/04/03 07:36:15;;;;;;;4.43;4.23;;;;;;;2.96;67.66;102691.19;5094582;28;20220;-69
2023/04/03 07:38:42;;;;;;;4.37;3.60;;;;;;;3.11;67.58;102705.19;5095155;28;20223;-69
2023/04/03 07:41:15;;;;;;;7.37;3.87;;;;;;;3.07;66.41;102703.47;5094472;28;20194;-69
2023/04/03 07:43:42;;;;;;;4.00;3.77;;;;;;;2.95;66.24;102702.66;5094477;28;20218;-68
2023/04/03 07:46:09;;;;;;;4.07;3.80;;;;;;;3.01;64.72;102701.72;5094900;28;20198;-69
2023/04/03 07:48:35;;;;;;;7.73;4.17;;;;;;;3.08;64.96;102707.84;5094317;28;20187;-69
2023/04/03 07:51:03;;;;;;;3.10;3.00;;;;;;;3.08;65.15;102707.84;5094274;28;20203;-69
2023/04/03 07:53:31;;;;;;;4.20;3.70;;;;;;;3.01;65.07;102701.72;5094508;28;20301;-68
2023/04/03 07:55:58;;;;;;;5.03;3.97;;;;;;;3.09;65.43;102699.00;5094171;28;20192;-69
2023/04/03 07:58:26;;;;;;;5.43;3.93;;;;;;;3.24;64.61;102705.97;5094077;28;20187;-69
2023/04/03 08:00:53;;;;;;;5.57;3.43;;;;;;;3.35;63.66;102701.41;5094338;28;20703;-70
2023/04/03 08:03:19;;;;;;;3.97;3.73;;;;;;;3.23;63.09;102697.13;5094056;28;20294;-68
2023/04/03 08:05:48;;;;;;;3.80;3.60;;;;;;;3.34;63.79;102705.84;5094012;28;20209;-69
2023/04/03 08:08:17;;;;;;;3.67;3.37;;;;;;;3.53;64.19;102700.38;5094518;28;20191;-69
2023/04/03 08:10:53;;;;;;;2.73;2.60;;;;;;;3.68;64.26;102707.28;5093982;28;20596;-69
2023/04/03 08:13:20;;;;;;;4.83;3.10;;;;;;;3.71;62.03;102708.13;5094204;28;20232;-69
2023/04/03 08:15:47;;;;;;;2.93;2.93;;;;;;;3.72;63.13;102709.00;5094166;28;20249;-69
2023/04/03 08:18:15;;;;;;;4.73;3.10;;;;;;;3.79;63.00;102703.59;5093791;28;20200;-69
2023/04/03 08:20:42;;;;;;;3.97;3.57;;;;;;;3.93;61.01;102711.41;5093811;28;20254;-69
2023/04/03 08:23:10;;;;;;;3.60;3.23;;;;;;;4.08;62.13;102705.03;5093650;28;20299;-68
2023/04/03 08:25:40;;;;;;;2.93;2.83;;;;;;;4.05;60.21;102715.69;5093467;28;20675;-69
2023/04/03 08:28:08;;;;;;;3.80;3.47;;;;;;;4.03;60.95;102705.09;5093711;28;20208;-69
2023/04/03 08:30:34;;;;;;;3.70;3.53;;;;;;;3.98;60.13;102708.69;5093572;28;20276;-69
2023/04/03 08:33:02;;;;;;;3.63;3.53;;;;;;;4.07;60.14;102708.59;5093483;28;20185;-68
2023/04/03 08:35:29;;;;;;;3.43;3.43;;;;;;;4.14;59.68;102718.22;5094089;28;20192;-68
2023/04/03 08:37:56;;;;;;;2.83;2.73;;;;;;;4.11;58.61;102715.59;5093724;28;20238;-68
2023/04/03 08:40:24;;;;;;;4.03;3.57;;;;;;;4.13;59.16;102720.88;5093367;28;20192;-68
2023/04/03 08:42:56;;;;;;;3.33;3.20;;;;;;;4.20;57.44;102711.94;5093456;28;20193;-67
2023/04/03 08:45:32;;;;;;;3.20;3.00;;;;;;;4.23;58.10;102726.03;5093676;28;20628;-68
2023/04/03 08:48:11;;;;;;;3.07;2.97;;;;;;;4.57;60.80;102717.59;5093986;28;20190;-68
2023/04/03 08:50:41;;;;;;;3.57;3.27;;;;;;;4.95;59.80;102723.25;5093970;28;20639;-68
2023/04/03 08:53:17;;;;;;;4.30;3.40;;;;;;;5.13;56.57;102714.13;5093591;28;20291;-68
2023/04/03 08:55:49;;;;;;;3.50;3.43;;;;;;;5.16;55.03;102708.75;5092772;28;20173;-68
2023/04/03 08:58:25;;;;;;;3.40;3.10;;;;;;;5.36;56.60;102713.69;5093649;28;20182;-68
2023/04/03 09:01:04;;;;;;;3.37;3.20;;;;;;;5.35;54.60;102709.31;5093578;28;20169;-68
2023/04/03 09:03:33;;;;;;;6.07;3.03;;;;;;;5.12;52.70;102710.56;5093411;28;20227;-68
2023/04/03 09:06:13;;;;;;;3.63;3.33;;;;;;;5.24;52.85;102722.75;5093697;28;20668;-69
2023/04/03 09:08:49;;;;;;;2.43;2.43;;;;;;;5.28;52.95;102711.19;5093749;28;20174;-68
2023/04/03 09:11:33;;;;;;;12.57;3.30;;;;;;;5.58;53.84;102717.72;5093205;28;20184;-68
2023/04/03 09:14:07;;;;;;;3.17;2.97;;;;;;;5.65;52.27;102726.44;5093663;28;20209;-68
2023/04/03 09:16:54;;;;;;;2.77;2.70;;;;;;;5.57;51.51;102720.41;5093404;28;20180;-68
2023/04/03 09:19:36;;;;;;;4.20;2.93;;;;;;;5.85;49.43;102734.06;5093325;28;20192;-69
2023/04/03 09:22:16;;;;;;;3.27;3.27;;;;;;;5.79;47.82;102728.84;5093307;28;20182;-69
2023/04/03 09:24:47;;;;;;;9.93;3.17;;;;;;;5.87;47.47;102725.13;5093074;28;20608;-68
2023/04/03 09:27:13;;;;;;;3.10;2.90;;;;;;;6.11;49.14;102723.78;5092976;28;20212;-68
2023/04/03 09:29:43;;;;;;;3.07;2.97;;;;;;;5.96;45.49;102724.09;5093681;28;20214;-69
2023/04/03 09:32:25;;;;;;;2.80;2.70;;;;;;;6.03;46.85;102723.06;5093482;28;20281;-69
2023/04/03 09:34:54;;;;;;;3.30;2.80;;;;;;;5.99;42.90;102728.50;5093140;28;20288;-69
2023/04/03 09:37:38;;;;;;;2.57;2.40;;;;;;;5.87;43.44;102724.28;5092881;28;20190;-69
2023/04/03 09:40:26;;;;;;;2.50;2.50;;;;;;;5.95;42.27;102714.38;5093289;28;20225;-69
2023/04/03 09:42:55;;;;;;;2.23;2.10;;;;;;;6.25;44.14;102714.63;5093141;28;20178;-69
2023/04/03 09:45:33;;;;;;;1.93;1.83;;;;;;;6.12;40.67;102711.38;5093772;28;20194;-69
2023/04/03 09:48:28;;;;;;;2.03;2.03;;;;;;;5.97;39.84;102707.25;5092872;28;20186;-69
2023/04/03 09:51:01;;;;;;;2.27;2.27;;;;;;;5.97;41.28;102720.53;5076159;28;20674;-69
2023/04/03 09:53:40;;;;;;;2.13;1.97;;;;;;;6.39;42.03;102721.44;5092926;28;20214;-69
2023/04/03 09:56:15;;;;;;;2.67;2.67;;;;;;;6.21;39.93;102727.13;5092704;28;20266;-69
2023/04/03 09:59:02;;;;;;;3.63;2.30;;;;;;;6.49;40.09;102708.78;5093255;28;20196;-70
2023/04/03 10:01:35;;;;;;;2.33;2.33;;;;;;;6.51;40.10;102716.72;5078787;28;20688;-69
2023/04/03 10:04:12;;;;;;;2.33;2.33;;;;;;;6.76;41.86;102701.94;5092364;28;20255;-69
2023/04/03 10:06:46;;;;;;;2.53;2.33;;;;;;;6.80;42.46;102708.94;5092828;28;20217;-69
2023/04/03 10:09:30;;;;;;;2.60;2.50;;;;;;;6.79;41.76;102701.84;5096482;28;20619;-69
2023/04/03 10:12:05;;;;;;;3.13;2.67;;;;;;;6.78;41.83;102713.44;5096451;28;20269;-70
2023/04/03 10:14:38;;;;;;;1.80;1.80;;;;;;;6.56;40.97;102710.41;5096086;28;20213;-69
2023/04/03 10:17:23;;;;;;;2.50;2.50;;;;;;;6.69;41.25;102712.78;5096496;28;20529;-69
2023/04/03 10:20:02;;;;;;;2.77;2.67;;;;;;;6.79;39.95;102708.97;5096358;28;20191;-69
2023/04/03 10:22:45;;;;;;;2.10;2.10;;;;;;;6.69;39.21;102708.31;5096416;28;20189;-69
2023/04/03 10:25:27;;;;;;;2.07;2.00;;;;;;;6.53;38.94;102717.56;5095989;28;20203;-69
2023/04/03 10:27:56;;;;;;;5.07;1.97;;;;;;;6.44;39.99;102708.03;5095973;28;20204;-69
2023/04/03 10:30:56;;;;;;;2.43;2.33;;;;;;;6.62;40.04;102708.50;5096037;28;20189;-69
2023/04/03 10:33:54;;;;;;;5.70;2.50;;;;;;;6.39;40.27;102712.53;5096101;28;20688;-68
2023/04/03 10:36:39;;;;;;;2.00;2.00;;;;;;;6.42;40.95;102688.53;5087417;28;20272;-69
2023/04/03 10:39:09;;;;;;;1.90;1.83;;;;;;;6.42;41.82;102692.97;5077111;28;20231;-69
2023/04/03 10:42:24;;;;;;;2.10;2.00;;;;;;;6.55;42.16;102694.44;5095647;28;20181;-69
2023/04/03 10:45:14;;;;;;;2.37;2.37;;;;;;;6.54;41.20;102693.59;5088469;28;20722;-69
2023/04/03 10:48:04;;;;;;;2.30;2.20;;;;;;;6.45;40.68;102688.47;5095929;28;20194;-69
2023/04/03 10:51:00;;;;;;;2.30;2.20;;;;;;;6.56;40.60;102685.53;5095779;28;20271;-69
2023/04/03 10:53:48;;;;;;;2.47;2.37;;;;;;;6.60;42.61;102673.91;5095535;28;20224;-68
2023/04/03 10:56:31;;;;;;;2.20;2.10;;;;;;;6.74;40.44;102677.13;5095863;28;20253;-69
2023/04/03 10:59:13;;;;;;;2.50;2.50;;;;;;;6.86;40.08;102678.63;5095292;28;20188;-69
2023/04/03 11:01:42;;;;;;;2.00;2.00;;;;;;;6.92;42.71;102681.13;5095055;28;20201;-69
2023/04/03 11:04:11;;;;;;;2.33;2.23;;;;;;;6.85;40.71;102668.00;5095105;28;20208;-68
2023/04/03 11:06:43;;;;;;;2.00;2.00;;;;;;;7.27;42.13;102670.47;5094979;28;20225;-69
2023/04/03 11:09:24;;;;;;;2.17;2.17;;;;;;;7.12;39.59;102671.75;5095136;28;20181;-69
2023/04/03 11:11:55;;;;;;;2.30;1.80;;;;;;;6.90;40.58;102661.66;5094666;28;20180;-69
2023/04/03 11:14:28;;;;;;;2.13;2.13;;;;;;;7.17;40.58;102657.41;5095051;28;20212;-68
2023/04/03 11:17:25;;;;;;;2.07;2.07;;;;;;;7.07;39.34;102657.69;5094983;28;20180;-69
2023/04/03 11:20:03;;;;;;;2.10;2.10;;;;;;;7.38;41.74;102655.09;5095261;28;20624;-68
2023/04/03 11:22:42;;;;;;;2.60;2.60;;;;;;;7.71;42.82;102660.38;5094652;28;20256;-68
2023/04/03 11:25:11;;;;;;;1.77;1.77;;;;;;;7.46;40.62;102653.06;5094644;28;20220;-68
2023/04/03 11:27:43;;;;;;;1.87;1.87;;;;;;;7.18;40.89;102628.94;5094514;28;20205;-68
2023/04/03 11:30:19;;;;;;;2.23;2.13;;;;;;;7.49;42.97;102631.66;5094738;28;20606;-69
2023/04/03 11:33:05;;;;;;;10.97;2.67;;;;;;;7.65;40.94;102637.44;5094786;28;20192;-69
2023/04/03 11:35:33;;;;;;;2.00;2.00;;;;;;;7.77;40.04;102641.53;5095006;28;20205;-69
2023/04/03 11:38:01;;;;;;;3.37;3.27;;;;;;;7.81;39.80;102644.06;5094415;28;20189;-68
2023/04/03 11:40:32;;;;;;;4.47;2.60;;;;;;;7.94;40.62;102641.91;5095120;28;20344;-68
2023/04/03 11:42:58;;;;;;;2.43;2.43;;;;;;;7.71;39.10;102634.59;5094952;28;20185;-68
2023/04/03 11:45:24;;;;;;;2.00;2.00;;;;;;;7.66;39.16;102621.41;5094551;28;20189;-68
2023/04/03 11:47:58;;;;;;;2.83;2.20;;;;;;;7.85;38.24;102626.16;5094381;28;20212;-69